Andong, South Korea

5:45 PM KST on October 25, 2014 (GMT +0900)
Daegu | Change Station
CLOSE
Current Station
Airport
Location: Daegu AB,
Elevation: 115 ft
Nearby Weather Stations

Elev 115 ft 35.89 °N, 128.66 °E | Updated 45 minutes ago

Clear
Clear
73 °F
Feels Like 73 °F
N
4
Wind Variable Wind from NW

Today
High -- | Low -- °F
--% Chance of Precip.
Yesterday
High -- | Low -- °F
Precip. -- in
6:41 AM 5:36 PM
New Moon, 2% visible
Pressure 30.06 in
Visibility -9999.0 miles
Clouds
Dew Point 46 °F
Humidity 38%
Rainfall 0.00 in
Snow Depth Not available.
UV Not available.
Pollen Not available.
Air Quality Not available.
Flu Activity Not available.
METAR RKTN 250800Z 31003KT CAVOK 23/08 Q1018 NOSIG

More Conditions Fewer Conditions

Pressure 30.06 in
Visibility -9999.0 miles
Clouds
Dew Point 46 °F
Humidity 38%
Rainfall 0.00 in
Snow Depth Not available.
UV Not available.
Pollen Not available.
Air Quality Not available.
Flu Activity Not available.
METAR RKTN 250800Z 31003KT CAVOK 23/08 Q1018 NOSIG

More Conditions Fewer Conditions

10-Day Weather Forecast

Almanac

Astronomy

Oct. 25, 2014 Rise Set
Actual Time 6:41 AM KST 5:36 PM KST
Civil Twilight 6:14 AM KST 6:03 PM KST
Nautical Twilight 5:44 AM KST 6:33 PM KST
Astronomical Twilight 5:14 AM KST 7:03 PM KST
Moon 7:42 AM KST 6:34 PM KST
Length of Visible Light 11h 48m
Length of Day
10h 55m
Tomorrow will be 2m 7s shorter.
New Moon, 2% of the Moon is Illuminated
Today
New Moon
Oct 30
First Quarter
Nov 6
Full
Nov 14
Last Quarter
Nov 22
New

Yesterday's Extremes

Country Highs Country Lows

Community

WunderPhotos

Upload Photos

1,764,791 photos uploaded!

Nearby

Snow Depth

Not available.

Earthquake Activity

City Distance Mag. Time & Date
No recent earthquake activity has been reported nearby.
Minimum magnitude displayed is 2.5.

Coastal Water Temperatures

Place Temperature
No Stations Reporting

Nearby Weather Stations